Time;durP1;ratioP1;P1;durP2;ratioP2;P2;SDS_P1;SDS_P2;PMS_P1;PMS_P2;Temp;Humidity;BMP_temperature;BMP_pressure;BME280_temperature;BME280_humidity;BME280_pressure;Samples;Min_cycle;Max_cycle;Signal;HPM_P1;HPM_P2
2020/12/21 00:00:16;;;;;;;14.63;4.80;;;7.30;91.30;;;;;;5056163;28;20107;-79
2020/12/21 00:02:41;;;;;;;20.30;5.33;;;7.30;91.30;;;;;;5056035;28;20024;-79
2020/12/21 00:05:07;;;;;;;17.07;5.70;;;7.30;91.40;;;;;;5037933;28;20045;-80
2020/12/21 00:07:34;;;;;;;19.90;5.53;;;7.20;91.50;;;;;;5054809;28;20066;-80
2020/12/21 00:09:59;;;;;;;17.80;5.57;;;7.20;91.50;;;;;;5054462;28;20032;-80
2020/12/21 00:12:25;;;;;;;16.13;5.23;;;7.20;91.70;;;;;;5037748;28;20378;-81
2020/12/21 00:14:51;;;;;;;17.60;5.63;;;7.10;91.60;;;;;;5054548;28;20025;-80
2020/12/21 00:17:16;;;;;;;15.37;4.93;;;7.10;91.60;;;;;;5038661;28;20135;-80
2020/12/21 00:19:42;;;;;;;15.83;5.87;;;7.10;91.70;;;;;;5056455;28;20575;-81
2020/12/21 00:22:08;;;;;;;15.93;4.80;;;7.10;91.70;;;;;;5038121;28;20029;-80
2020/12/21 00:24:33;;;;;;;19.20;5.17;;;7.10;91.70;;;;;;5054744;28;20032;-81
2020/12/21 00:26:59;;;;;;;18.77;4.83;;;7.00;91.70;;;;;;5038087;28;20108;-80
2020/12/21 00:29:25;;;;;;;15.17;5.20;;;7.00;91.70;;;;;;5055068;28;20447;-80
2020/12/21 00:31:50;;;;;;;12.67;4.47;;;7.00;91.80;;;;;;5054939;28;20041;-76
2020/12/21 00:34:17;;;;;;;19.97;5.73;;;6.90;91.70;;;;;;5037294;28;20473;-74
2020/12/21 00:36:45;;;;;;;18.67;4.93;;;7.00;91.90;;;;;;5054215;28;20021;-75
2020/12/21 00:39:11;;;;;;;14.83;5.03;;;7.00;91.90;;;;;;5053974;28;20102;-75
2020/12/21 00:41:38;;;;;;;17.87;5.33;;;6.90;91.90;;;;;;5037045;28;20052;-75
2020/12/21 00:44:05;;;;;;;19.93;5.97;;;6.90;91.90;;;;;;5053825;28;20051;-74
2020/12/21 00:46:31;;;;;;;19.10;5.97;;;6.90;92.00;;;;;;5054304;28;20028;-75
2020/12/21 00:49:00;;;;;;;14.77;5.40;;;6.80;92.30;;;;;;5053673;28;20020;-74
2020/12/21 00:51:26;;;;;;;18.30;5.40;;;6.90;91.90;;;;;;5054860;28;20022;-74
2020/12/21 00:53:53;;;;;;;21.33;5.50;;;6.80;92.00;;;;;;5054756;28;20070;-73
2020/12/21 00:56:20;;;;;;;16.93;4.90;;;6.80;91.90;;;;;;5054715;28;20032;-75
2020/12/21 00:58:46;;;;;;;15.70;6.07;;;6.80;91.90;;;;;;5052920;28;20085;-74
2020/12/21 01:01:18;;;;;;;18.90;5.60;;;6.80;92.10;;;;;;5054817;28;20036;-75
2020/12/21 01:03:43;;;;;;;15.60;5.30;;;6.80;92.00;;;;;;5054606;28;20496;-74
2020/12/21 01:06:09;;;;;;;16.00;5.07;;;6.70;92.10;;;;;;5054708;28;20037;-75
2020/12/21 01:08:36;;;;;;;15.50;5.13;;;6.70;92.10;;;;;;5054453;28;20131;-74
2020/12/21 01:11:08;;;;;;;14.67;6.07;;;6.70;92.10;;;;;;5053266;28;20049;-74
2020/12/21 01:13:33;;;;;;;21.67;6.00;;;6.70;92.20;;;;;;5053052;28;20119;-75
2020/12/21 01:15:59;;;;;;;15.97;5.27;;;6.70;92.20;;;;;;5053059;28;20512;-74
2020/12/21 01:18:25;;;;;;;21.43;5.77;;;6.60;92.20;;;;;;5036345;28;20033;-75
2020/12/21 01:20:50;;;;;;;13.53;5.30;;;6.60;92.40;;;;;;5052867;28;20117;-74
2020/12/21 01:23:16;;;;;;;22.43;5.93;;;6.60;92.30;;;;;;5036352;28;20480;-74
2020/12/21 01:25:41;;;;;;;14.90;4.80;;;6.60;92.60;;;;;;5036398;28;20032;-75
2020/12/21 01:28:07;;;;;;;16.60;4.83;;;6.60;92.40;;;;;;5054560;28;20444;-75
2020/12/21 01:30:33;;;;;;;19.60;5.50;;;6.60;92.40;;;;;;5052753;28;20075;-74
2020/12/21 01:32:58;;;;;;;19.53;5.33;;;6.60;92.70;;;;;;5052878;28;20040;-76
2020/12/21 01:35:24;;;;;;;25.20;6.03;;;6.50;92.70;;;;;;5052969;28;20029;-75
2020/12/21 01:37:50;;;;;;;21.63;4.87;;;6.50;92.70;;;;;;5052575;28;20534;-75
2020/12/21 01:40:15;;;;;;;22.73;6.10;;;6.60;92.70;;;;;;5052656;28;20033;-74
2020/12/21 01:42:41;;;;;;;21.00;5.33;;;6.50;92.80;;;;;;5053786;28;20052;-76
2020/12/21 01:45:08;;;;;;;18.87;5.70;;;6.50;92.80;;;;;;5053830;28;20021;-74
2020/12/21 01:47:35;;;;;;;17.60;5.20;;;6.50;92.90;;;;;;5053837;28;20483;-76
2020/12/21 01:50:02;;;;;;;15.73;5.00;;;6.50;92.90;;;;;;5035937;28;20170;-74
2020/12/21 01:52:28;;;;;;;20.10;4.87;;;6.50;93.00;;;;;;5052454;28;20032;-76
2020/12/21 01:54:54;;;;;;;16.73;5.50;;;6.50;93.00;;;;;;5052249;28;20029;-74
2020/12/21 01:57:21;;;;;;;18.30;5.63;;;6.50;93.10;;;;;;5052646;28;20033;-75
2020/12/21 01:59:47;;;;;;;9.63;4.70;;;6.50;93.00;;;;;;5035812;28;20083;-75
2020/12/21 02:02:12;;;;;;;23.03;4.87;;;6.60;93.20;;;;;;5052415;28;20037;-74
2020/12/21 02:04:38;;;;;;;12.93;4.70;;;6.50;93.10;;;;;;5035512;28;20049;-76
2020/12/21 02:07:06;;;;;;;20.30;5.03;;;6.50;93.10;;;;;;5052221;28;20079;-76
2020/12/21 02:09:32;;;;;;;19.03;4.43;;;6.50;93.10;;;;;;5053265;28;20377;-74
2020/12/21 02:11:58;;;;;;;18.53;4.40;;;6.50;93.10;;;;;;5053678;28;20036;-74
2020/12/21 02:14:24;;;;;;;19.20;4.77;;;6.50;93.10;;;;;;5053609;28;20041;-75
2020/12/21 02:16:49;;;;;;;21.60;5.20;;;6.60;93.10;;;;;;5052321;28;20060;-75
2020/12/21 02:19:15;;;;;;;13.20;4.13;;;6.50;93.20;;;;;;5052228;28;20492;-76
2020/12/21 02:21:41;;;;;;;17.63;4.60;;;6.60;93.20;;;;;;5053424;28;20032;-75
2020/12/21 02:24:07;;;;;;;19.30;5.10;;;6.50;93.10;;;;;;5053465;28;20502;-75
2020/12/21 02:26:34;;;;;;;20.23;4.70;;;6.50;93.40;;;;;;5053532;28;20036;-74
2020/12/21 02:29:00;;;;;;;16.53;5.10;;;6.60;93.10;;;;;;5053241;28;20029;-75
2020/12/21 02:31:26;;;;;;;16.23;4.80;;;6.50;93.10;;;;;;5052069;28;20076;-76
2020/12/21 02:33:52;;;;;;;11.50;4.43;;;6.50;93.00;;;;;;5053254;28;20415;-75
2020/12/21 02:36:18;;;;;;;17.33;4.57;;;6.50;93.00;;;;;;5053307;28;20639;-75
2020/12/21 02:38:43;;;;;;;14.30;4.57;;;6.50;93.30;;;;;;5053168;28;20037;-75
2020/12/21 02:41:13;;;;;;;17.73;5.17;;;6.40;92.90;;;;;;5052038;28;20059;-75
2020/12/21 02:43:39;;;;;;;15.37;5.87;;;6.60;93.10;;;;;;5035633;28;20102;-75
2020/12/21 02:46:09;;;;;;;16.50;5.00;;;6.50;93.00;;;;;;5052230;28;20477;-76
2020/12/21 02:48:34;;;;;;;16.07;4.47;;;6.50;93.10;;;;;;5053262;28;20024;-74
2020/12/21 02:51:00;;;;;;;12.73;4.50;;;6.40;93.10;;;;;;5052065;28;20453;-75
2020/12/21 02:53:26;;;;;;;13.57;3.80;;;6.40;93.10;;;;;;5053479;28;20369;-75
2020/12/21 02:55:51;;;;;;;17.20;4.33;;;6.40;93.40;;;;;;5051799;28;20112;-75
2020/12/21 02:58:17;;;;;;;16.03;4.30;;;6.30;93.10;;;;;;5051768;28;20033;-73
2020/12/21 03:00:43;;;;;;;11.60;4.47;;;6.40;93.20;;;;;;5052850;28;20102;-75
2020/12/21 03:03:09;;;;;;;14.53;4.37;;;6.40;93.10;;;;;;5051599;28;20032;-74
2020/12/21 03:05:35;;;;;;;10.60;3.83;;;6.40;93.10;;;;;;5052666;28;20057;-75
2020/12/21 03:08:03;;;;;;;11.93;3.80;;;6.40;93.20;;;;;;5053261;28;20025;-75
2020/12/21 03:10:28;;;;;;;13.90;4.57;;;6.30;93.10;;;;;;5051624;28;20423;-75
2020/12/21 03:12:54;;;;;;;13.20;3.97;;;6.40;93.20;;;;;;5051644;28;20041;-75
2020/12/21 03:15:20;;;;;;;9.50;3.30;;;6.50;93.20;;;;;;5052835;28;20033;-75
2020/12/21 03:17:45;;;;;;;13.13;3.27;;;6.40;93.20;;;;;;5051363;28;20033;-75
2020/12/21 03:20:11;;;;;;;15.53;4.00;;;6.40;93.20;;;;;;5034855;28;20128;-76
2020/12/21 03:22:37;;;;;;;13.23;4.20;;;6.40;93.40;;;;;;5038712;28;20033;-75
2020/12/21 03:25:05;;;;;;;19.70;4.03;;;6.30;93.40;;;;;;5055468;28;20033;-75
2020/12/21 03:27:30;;;;;;;19.97;4.33;;;6.30;93.30;;;;;;5038505;28;20025;-81
2020/12/21 03:29:57;;;;;;;21.10;4.43;;;6.40;93.30;;;;;;5056528;28;20082;-80
2020/12/21 03:32:22;;;;;;;21.97;4.93;;;6.30;93.30;;;;;;5056577;28;20543;-80
2020/12/21 03:34:48;;;;;;;23.03;4.90;;;6.30;93.40;;;;;;5056368;28;20099;-81
2020/12/21 03:37:14;;;;;;;13.07;5.10;;;6.30;93.40;;;;;;5055281;28;20492;-81
2020/12/21 03:39:39;;;;;;;11.33;3.60;;;6.30;93.30;;;;;;5038414;28;20029;-81
2020/12/21 03:42:05;;;;;;;12.73;4.50;;;6.30;93.30;;;;;;5038500;28;20437;-81
2020/12/21 03:44:31;;;;;;;19.50;3.63;;;6.40;93.30;;;;;;5038284;28;20036;-81
2020/12/21 03:46:57;;;;;;;15.17;4.43;;;6.30;93.20;;;;;;5054999;28;20031;-81
2020/12/21 03:49:22;;;;;;;17.93;4.03;;;6.30;93.20;;;;;;5054739;28;20025;-81
2020/12/21 03:51:48;;;;;;;13.87;3.63;;;6.30;93.20;;;;;;5038240;28;20361;-81
2020/12/21 03:54:14;;;;;;;18.67;4.40;;;6.30;93.30;;;;;;5038105;28;20033;-81
2020/12/21 03:56:46;;;;;;;18.17;4.03;;;6.40;93.30;;;;;;5038269;28;20115;-81
2020/12/21 03:59:11;;;;;;;11.67;3.90;;;6.40;93.20;;;;;;5054695;28;20032;-81
2020/12/21 04:01:38;;;;;;;20.93;4.73;;;6.30;93.20;;;;;;5055880;28;20029;-81
2020/12/21 04:04:07;;;;;;;10.13;3.60;;;6.30;93.30;;;;;;5054659;28;20465;-81
2020/12/21 04:06:36;;;;;;;12.60;3.50;;;6.30;93.20;;;;;;5054464;28;20067;-81
2020/12/21 04:09:03;;;;;;;12.27;3.60;;;6.30;93.20;;;;;;5055828;28;20025;-81
2020/12/21 04:11:28;;;;;;;12.47;3.43;;;6.30;93.20;;;;;;5055588;28;20025;-81
2020/12/21 04:13:54;;;;;;;13.43;3.77;;;6.30;93.20;;;;;;5054470;28;20029;-81
2020/12/21 04:16:19;;;;;;;12.53;3.03;;;6.20;93.10;;;;;;5054471;28;20514;-81
2020/12/21 04:18:45;;;;;;;12.27;3.70;;;6.30;93.10;;;;;;5054213;28;20025;-81
2020/12/21 04:21:14;;;;;;;16.10;4.17;;;6.30;93.20;;;;;;5054410;28;20033;-81
2020/12/21 04:23:43;;;;;;;20.03;4.10;;;6.30;93.30;;;;;;5054363;28;20425;-81
2020/12/21 04:26:08;;;;;;;17.23;4.37;;;6.20;93.20;;;;;;5054087;28;20025;-81
2020/12/21 04:28:35;;;;;;;12.47;3.47;;;6.30;93.40;;;;;;5054024;28;20044;-81
2020/12/21 04:31:02;;;;;;;15.23;3.13;;;6.20;93.30;;;;;;5054037;28;20029;-80
2020/12/21 04:33:28;;;;;;;14.57;3.70;;;6.20;93.30;;;;;;5055321;28;20029;-80
2020/12/21 04:35:53;;;;;;;11.37;3.10;;;6.20;93.30;;;;;;5054041;28;20366;-81
2020/12/21 04:38:19;;;;;;;14.10;3.80;;;6.20;93.30;;;;;;5054095;28;20029;-81
2020/12/21 04:40:51;;;;;;;15.63;3.20;;;6.20;93.40;;;;;;5054066;28;20029;-80
2020/12/21 04:43:17;;;;;;;10.60;3.70;;;6.20;93.40;;;;;;5053864;28;20115;-80
2020/12/21 04:45:43;;;;;;;10.63;3.73;;;6.20;93.40;;;;;;5055045;28;20151;-81
2020/12/21 04:48:15;;;;;;;11.47;3.40;;;6.20;93.40;;;;;;5053870;28;20031;-81
2020/12/21 04:50:41;;;;;;;19.13;4.17;;;6.30;93.40;;;;;;5053639;28;20061;-81
2020/12/21 04:53:08;;;;;;;15.10;3.47;;;6.20;93.40;;;;;;5054937;28;20037;-81
2020/12/21 04:55:34;;;;;;;18.63;3.27;;;6.20;93.40;;;;;;5053593;28;20088;-80
2020/12/21 04:58:02;;;;;;;12.67;3.70;;;6.30;93.50;;;;;;5054750;28;20033;-80
2020/12/21 05:00:32;;;;;;;12.30;3.40;;;6.30;93.50;;;;;;5053534;28;20534;-81
2020/12/21 05:02:58;;;;;;;15.00;3.70;;;6.30;93.50;;;;;;5073204;28;20024;-80
2020/12/21 05:05:28;;;;;;;16.13;3.67;;;6.30;93.50;;;;;;5073093;28;20464;-80
2020/12/21 05:07:54;;;;;;;15.30;3.13;;;6.30;93.50;;;;;;5073227;28;20082;-81
2020/12/21 05:10:20;;;;;;;9.20;2.37;;;6.30;93.50;;;;;;5073276;28;20024;-80
2020/12/21 05:12:45;;;;;;;20.47;3.17;;;6.30;93.50;;;;;;5056771;28;20119;-81
2020/12/21 05:15:16;;;;;;;13.73;3.57;;;6.40;93.50;;;;;;5056605;28;20078;-80
2020/12/21 05:17:42;;;;;;;7.83;2.40;;;6.40;93.50;;;;;;5073447;28;20031;-81
2020/12/21 05:20:07;;;;;;;12.23;2.30;;;6.40;93.40;;;;;;5073185;28;20032;-80
2020/12/21 05:22:33;;;;;;;14.73;3.23;;;6.30;93.40;;;;;;5074329;28;20486;-81
2020/12/21 05:25:06;;;;;;;13.70;3.70;;;6.30;93.40;;;;;;5072963;28;20035;-80
2020/12/21 05:27:32;;;;;;;13.13;3.13;;;6.30;93.40;;;;;;5073006;28;20017;-80
2020/12/21 05:29:57;;;;;;;14.57;2.57;;;6.30;93.70;;;;;;5074085;28;20427;-81
2020/12/21 05:32:24;;;;;;;12.70;2.70;;;6.30;93.40;;;;;;5072924;28;20435;-80
2020/12/21 05:34:50;;;;;;;10.90;2.73;;;6.30;93.40;;;;;;5056046;28;20476;-80
2020/12/21 05:37:20;;;;;;;11.73;2.50;;;6.40;93.40;;;;;;5074057;28;20036;-81
2020/12/21 05:39:53;;;;;;;15.50;4.73;;;6.40;93.40;;;;;;5072628;28;20119;-81
2020/12/21 05:42:20;;;;;;;11.80;2.80;;;6.40;93.40;;;;;;5074098;28;20029;-80
2020/12/21 05:45:07;;;;;;;10.87;2.63;;;6.40;93.40;;;;;;5072144;28;20310;-81
2020/12/21 05:47:33;;;;;;;9.20;2.33;;;6.40;93.30;;;;;;5073795;28;20095;-81
2020/12/21 05:50:05;;;;;;;12.63;2.50;;;6.40;93.30;;;;;;5072255;28;20027;-80
2020/12/21 05:52:36;;;;;;;11.87;2.50;;;6.40;93.30;;;;;;5072397;28;20098;-80
2020/12/21 05:55:07;;;;;;;8.93;2.73;;;6.40;93.30;;;;;;5071021;28;20016;-81
2020/12/21 05:57:33;;;;;;;13.10;2.60;;;6.40;93.20;;;;;;5074046;28;20025;-81
2020/12/21 06:00:07;;;;;;;11.43;2.27;;;6.40;93.20;;;;;;5073496;28;20020;-81
2020/12/21 06:02:33;;;;;;;10.02;2.53;;;6.40;93.20;;;;;;5073644;28;20021;-81
2020/12/21 06:05:10;;;;;;;7.30;1.93;;;6.40;93.20;;;;;;5072230;28;20040;-81
2020/12/21 06:07:37;;;;;;;12.37;2.70;;;6.40;93.20;;;;;;5055589;28;20032;-80
2020/12/21 06:10:07;;;;;;;13.97;2.77;;;6.40;93.20;;;;;;5072115;28;20073;-80
2020/12/21 06:12:45;;;;;;;14.30;3.30;;;6.50;93.20;;;;;;5073578;28;20114;-80
2020/12/21 06:15:14;;;;;;;12.40;3.10;;;6.40;93.20;;;;;;5073520;28;20067;-80
2020/12/21 06:17:39;;;;;;;10.73;2.47;;;6.30;93.40;;;;;;5072075;28;20016;-80
2020/12/21 06:20:07;;;;;;;13.90;2.83;;;6.40;93.20;;;;;;5072050;28;20036;-81
2020/12/21 06:22:33;;;;;;;7.90;2.70;;;6.40;93.10;;;;;;5055494;28;20107;-81
2020/12/21 06:24:59;;;;;;;11.03;2.50;;;6.40;93.10;;;;;;5070766;28;20031;-81
2020/12/21 06:27:35;;;;;;;13.93;2.60;;;6.40;93.10;;;;;;5072164;28;20025;-81
2020/12/21 06:30:01;;;;;;;8.10;2.60;;;6.40;93.10;;;;;;5071987;28;20044;-80
2020/12/21 06:32:31;;;;;;;17.97;2.97;;;6.40;93.10;;;;;;5072141;28;20435;-81
2020/12/21 06:34:57;;;;;;;8.80;2.50;;;6.40;93.10;;;;;;5072058;28;20016;-80
2020/12/21 06:37:23;;;;;;;9.70;2.20;;;6.40;93.10;;;;;;5073280;28;20104;-80
2020/12/21 06:40:04;;;;;;;9.33;2.80;;;6.40;93.30;;;;;;5073173;28;20415;-80
2020/12/21 06:42:30;;;;;;;13.43;3.30;;;6.50;93.20;;;;;;5073204;28;20078;-80
2020/12/21 06:44:55;;;;;;;11.50;2.33;;;6.50;93.20;;;;;;5072032;28;20028;-80
2020/12/21 06:47:26;;;;;;;12.83;3.30;;;6.50;93.20;;;;;;5073194;28;20024;-80
2020/12/21 06:49:52;;;;;;;11.73;3.10;;;6.50;93.20;;;;;;5071835;28;20357;-80
2020/12/21 06:52:19;;;;;;;16.03;3.13;;;6.60;93.20;;;;;;5055202;28;20029;-80
2020/12/21 06:54:45;;;;;;;13.93;2.67;;;6.50;93.10;;;;;;5067120;28;20132;-80
2020/12/21 06:57:12;;;;;;;14.80;3.50;;;6.50;93.20;;;;;;5063031;28;20013;-80
2020/12/21 06:59:38;;;;;;;13.60;2.57;;;6.50;93.20;;;;;;5039144;28;20116;-80
2020/12/21 07:02:04;;;;;;;12.87;2.43;;;6.50;93.30;;;;;;5039079;28;20029;-79
2020/12/21 07:04:33;;;;;;;11.80;3.17;;;6.60;93.20;;;;;;5055164;28;20053;-80
2020/12/21 07:07:04;;;;;;;7.27;2.20;;;6.50;93.20;;;;;;5054145;28;20393;-79
2020/12/21 07:09:32;;;;;;;13.03;2.40;;;6.60;93.30;;;;;;5054193;28;20033;-79
2020/12/21 07:12:03;;;;;;;17.93;3.97;;;6.60;93.20;;;;;;5054177;28;20036;-80
2020/12/21 07:14:30;;;;;;;15.90;3.20;;;6.60;93.30;;;;;;5055258;28;20063;-79
2020/12/21 07:17:08;;;;;;;11.47;2.93;;;6.60;93.30;;;;;;5054302;28;20036;-80
2020/12/21 07:19:37;;;;;;;11.23;2.43;;;6.60;93.30;;;;;;5037582;28;20044;-80
2020/12/21 07:22:04;;;;;;;14.70;3.13;;;6.70;93.40;;;;;;5055208;28;20033;-79
2020/12/21 07:24:29;;;;;;;9.83;2.57;;;6.70;93.40;;;;;;5054004;28;20481;-79
2020/12/21 07:26:55;;;;;;;11.17;3.37;;;6.70;93.40;;;;;;5037427;28;20031;-75
2020/12/21 07:29:21;;;;;;;14.90;3.23;;;6.70;93.40;;;;;;5037386;28;20025;-75
2020/12/21 07:31:47;;;;;;;13.27;2.73;;;6.80;93.40;;;;;;5037321;28;20123;-75
2020/12/21 07:34:12;;;;;;;12.50;2.60;;;6.80;93.40;;;;;;5043554;28;20033;-75
2020/12/21 07:36:38;;;;;;;10.80;2.87;;;6.80;93.60;;;;;;5053736;28;20025;-76
2020/12/21 07:39:09;;;;;;;10.80;2.30;;;6.80;93.30;;;;;;5055161;28;20539;-76
2020/12/21 07:41:40;;;;;;;12.10;3.00;;;6.90;93.30;;;;;;5043094;28;20056;-80
2020/12/21 07:44:19;;;;;;;12.43;2.73;;;6.90;93.30;;;;;;5054937;28;20061;-81
2020/12/21 07:47:30;;;;;;;11.37;2.70;;;6.90;93.30;;;;;;5064235;28;20111;-75
2020/12/21 07:49:56;;;;;;;12.20;2.50;;;6.90;93.20;;;;;;5055613;28;20067;-75
2020/12/21 07:52:23;;;;;;;13.50;3.20;;;7.00;93.20;;;;;;5050281;28;20040;-80
2020/12/21 07:54:49;;;;;;;12.37;2.87;;;7.00;93.20;;;;;;5071912;28;20082;-80
2020/12/21 07:57:18;;;;;;;14.43;2.67;;;7.00;93.10;;;;;;5069665;28;20032;-80
2020/12/21 07:59:59;;;;;;;14.47;3.73;;;7.10;93.10;;;;;;5061822;28;20033;-80
2020/12/21 08:02:26;;;;;;;16.87;2.87;;;7.00;93.10;;;;;;5054355;28;20107;-79
2020/12/21 08:04:52;;;;;;;10.00;2.67;;;7.10;93.10;;;;;;5033054;28;597167;-79
2020/12/21 08:07:18;;;;;;;8.73;2.67;;;7.00;93.10;;;;;;5075157;28;20032;-79
2020/12/21 08:09:45;;;;;;;10.40;3.17;;;7.10;93.10;;;;;;5073331;28;20047;-75
2020/12/21 08:12:15;;;;;;;13.67;2.27;;;7.20;93.10;;;;;;5074204;28;20016;-74
2020/12/21 08:14:42;;;;;;;14.23;2.97;;;7.10;93.00;;;;;;5064152;28;20025;-74
2020/12/21 08:17:28;;;;;;;11.33;2.50;;;7.20;93.00;;;;;;5067108;28;20025;-75
2020/12/21 08:19:59;;;;;;;13.90;2.60;;;7.20;93.00;;;;;;5058066;28;20036;-76
2020/12/21 08:22:26;;;;;;;18.57;2.43;;;7.20;92.90;;;;;;5069951;28;20060;-75
2020/12/21 08:25:10;;;;;;;14.57;3.10;;;7.30;92.80;;;;;;5066298;28;20017;-75
2020/12/21 08:27:43;;;;;;;;;;;7.30;92.80;;;;;;5074002;28;20035;-75
2020/12/21 08:30:15;;;;;;;13.10;3.03;;;7.30;92.70;;;;;;5072768;28;20407;-75
2020/12/21 08:32:41;;;;;;;10.07;2.63;;;7.30;92.70;;;;;;5075423;28;20506;-74
2020/12/21 08:35:07;;;;;;;7.30;2.40;;;7.30;92.60;;;;;;5075049;28;20480;-75
2020/12/21 08:37:33;;;;;;;16.10;2.60;;;7.30;92.60;;;;;;5073938;28;20036;-76
2020/12/21 08:40:28;;;;;;;9.33;2.00;;;7.40;92.60;;;;;;5073680;28;20028;-75
2020/12/21 08:42:54;;;;;;;;;;;7.40;92.60;;;;;;5074201;28;20044;-76
2020/12/21 08:45:21;;;;;;;13.30;2.30;;;7.40;92.40;;;;;;5053696;28;20241;-75
2020/12/21 08:47:47;;;;;;;10.00;2.23;;;7.50;92.40;;;;;;5061503;28;20033;-75
2020/12/21 08:50:13;;;;;;;8.83;2.43;;;7.50;92.40;;;;;;5071993;28;20017;-76
2020/12/21 08:52:39;;;;;;;10.93;2.60;;;7.50;92.30;;;;;;5074800;28;20518;-76
2020/12/21 08:55:08;;;;;;;8.97;2.27;;;7.60;92.40;;;;;;5073694;28;20055;-75
2020/12/21 08:57:34;;;;;;;11.83;2.47;;;7.70;92.60;;;;;;5073695;28;20021;-75
2020/12/21 08:59:59;;;;;;;11.53;1.90;;;7.70;92.30;;;;;;5074456;28;20445;-76
2020/12/21 09:02:25;;;;;;;8.00;1.97;;;7.80;92.30;;;;;;5062632;28;20020;-76
2020/12/21 09:04:51;;;;;;;7.30;1.93;;;7.70;92.20;;;;;;5054698;28;20493;-77
2020/12/21 09:07:16;;;;;;;14.50;2.40;;;7.70;92.20;;;;;;5052178;28;20094;-77
2020/12/21 09:09:42;;;;;;;12.63;1.97;;;7.80;92.10;;;;;;5056128;28;20032;-78
2020/12/21 09:12:08;;;;;;;12.60;2.03;;;7.80;91.90;;;;;;5056387;28;20496;-78
2020/12/21 09:14:33;;;;;;;12.93;3.13;;;7.80;91.80;;;;;;5056071;28;20033;-79
2020/12/21 09:17:13;;;;;;;9.90;1.73;;;8.00;91.80;;;;;;5049140;28;20036;-77
2020/12/21 09:19:39;;;;;;;8.10;1.80;;;7.90;91.70;;;;;;5068945;28;20511;-78
2020/12/21 09:22:04;;;;;;;9.57;1.77;;;7.90;91.60;;;;;;5069501;28;20025;-76
2020/12/21 09:24:30;;;;;;;6.47;1.87;;;7.90;91.40;;;;;;5054200;28;20021;-76
2020/12/21 09:26:56;;;;;;;8.90;1.70;;;8.00;91.50;;;;;;5052821;28;20388;-76
2020/12/21 09:29:21;;;;;;;15.73;2.40;;;8.00;91.40;;;;;;5052288;28;20030;-77
2020/12/21 09:31:47;;;;;;;12.23;2.17;;;8.10;91.30;;;;;;5052747;28;20065;-76
2020/12/21 09:34:12;;;;;;;11.83;1.90;;;8.10;91.30;;;;;;5058925;28;20024;-77
2020/12/21 09:36:41;;;;;;;8.97;2.10;;;8.10;91.10;;;;;;5055859;28;20028;-75
2020/12/21 09:39:07;;;;;;;9.47;1.93;;;8.10;91.10;;;;;;5073786;28;20055;-75
2020/12/21 09:41:32;;;;;;;7.33;1.77;;;8.10;91.10;;;;;;5072215;28;20472;-77
2020/12/21 09:43:58;;;;;;;10.63;2.20;;;8.20;91.30;;;;;;5056142;28;20016;-76
2020/12/21 09:46:26;;;;;;;11.33;2.30;;;8.20;90.90;;;;;;5072538;28;20122;-75
2020/12/21 09:48:52;;;;;;;9.03;2.10;;;8.30;90.90;;;;;;5072631;28;20052;-76
2020/12/21 09:51:18;;;;;;;6.97;1.97;;;8.30;90.90;;;;;;5073673;28;20029;-76
2020/12/21 09:53:45;;;;;;;9.80;1.67;;;8.40;90.80;;;;;;5073700;28;20028;-76
2020/12/21 09:56:12;;;;;;;10.50;1.80;;;8.40;90.80;;;;;;5072151;28;20020;-76
2020/12/21 09:58:37;;;;;;;6.97;1.53;;;8.40;90.80;;;;;;5073534;28;20488;-76
2020/12/21 10:01:04;;;;;;;8.57;2.20;;;8.30;90.70;;;;;;5072098;28;20165;-77
2020/12/21 10:03:30;;;;;;;11.70;1.50;;;8.40;90.60;;;;;;5073454;28;20024;-77
2020/12/21 10:05:55;;;;;;;9.73;1.87;;;8.40;90.70;;;;;;5072114;28;20052;-77
2020/12/21 10:08:21;;;;;;;8.20;1.60;;;8.40;90.60;;;;;;5072118;28;20021;-76
2020/12/21 10:10:48;;;;;;;10.40;1.80;;;8.40;90.30;;;;;;5073993;28;20028;-75
2020/12/21 10:13:13;;;;;;;8.53;1.90;;;8.50;90.30;;;;;;5072205;28;20093;-77
2020/12/21 10:15:39;;;;;;;7.37;1.77;;;8.50;90.30;;;;;;5072315;28;20024;-76
2020/12/21 10:18:05;;;;;;;8.97;2.43;;;8.50;90.30;;;;;;5073388;28;20055;-76
2020/12/21 10:20:30;;;;;;;10.33;2.40;;;8.50;90.30;;;;;;5073360;28;20115;-76
2020/12/21 10:22:56;;;;;;;8.90;2.13;;;8.50;90.30;;;;;;5072012;28;20035;-77
2020/12/21 10:25:21;;;;;;;12.37;2.23;;;8.50;90.30;;;;;;5073307;28;20407;-76
2020/12/21 10:27:47;;;;;;;12.37;1.80;;;8.50;90.30;;;;;;5072416;28;20043;-76
2020/12/21 10:30:15;;;;;;;7.60;2.03;;;8.50;90.40;;;;;;5073087;28;20025;-76
2020/12/21 10:32:43;;;;;;;7.07;2.03;;;8.50;90.40;;;;;;5071918;28;20487;-77
2020/12/21 10:35:09;;;;;;;9.27;2.33;;;8.60;90.50;;;;;;5038766;28;20119;-75
2020/12/21 10:37:34;;;;;;;8.50;1.90;;;8.60;90.50;;;;;;5073099;28;20021;-76
2020/12/21 10:40:00;;;;;;;9.77;1.50;;;8.50;90.50;;;;;;5072931;28;20028;-78
2020/12/21 10:42:25;;;;;;;10.33;2.10;;;8.50;90.60;;;;;;5071521;28;20431;-80
2020/12/21 10:44:51;;;;;;;13.03;2.50;;;8.60;90.60;;;;;;5055453;28;20065;-81
2020/12/21 10:47:17;;;;;;;6.37;1.90;;;8.60;90.70;;;;;;5038583;28;20404;-79
2020/12/21 10:49:42;;;;;;;9.47;3.10;;;8.50;90.70;;;;;;5065671;28;20078;-81
2020/12/21 10:52:08;;;;;;;8.93;2.13;;;8.60;90.80;;;;;;5071626;28;20035;-76
2020/12/21 10:54:33;;;;;;;9.70;2.10;;;8.60;90.90;;;;;;5071673;28;20040;-74
2020/12/21 10:57:02;;;;;;;13.30;2.50;;;8.50;91.00;;;;;;5058101;28;20108;-75
2020/12/21 10:59:29;;;;;;;8.97;2.27;;;8.60;91.00;;;;;;5035564;28;20041;-75
2020/12/21 11:01:54;;;;;;;11.23;1.87;;;8.60;91.20;;;;;;5051758;28;20021;-75
2020/12/21 11:04:20;;;;;;;9.87;2.43;;;8.60;91.30;;;;;;5051539;28;20060;-81
2020/12/21 11:06:46;;;;;;;10.67;2.77;;;8.60;91.30;;;;;;5051714;28;20104;-83
2020/12/21 11:09:11;;;;;;;6.77;2.40;;;8.60;91.50;;;;;;5018433;28;20070;-83
2020/12/21 11:11:37;;;;;;;9.20;2.57;;;8.60;91.60;;;;;;5018453;28;20069;-83
2020/12/21 11:14:05;;;;;;;9.73;2.30;;;8.60;91.60;;;;;;5018490;28;20036;-82
2020/12/21 11:16:32;;;;;;;10.37;2.73;;;8.50;91.60;;;;;;5051399;28;20079;-84
2020/12/21 11:18:58;;;;;;;9.23;2.63;;;8.60;91.80;;;;;;5051507;28;20053;-83
2020/12/21 11:21:23;;;;;;;11.37;2.57;;;8.60;91.80;;;;;;5034872;28;20067;-83
2020/12/21 11:23:49;;;;;;;14.03;2.73;;;8.60;92.00;;;;;;5051473;28;20032;-83
2020/12/21 11:26:15;;;;;;;9.27;2.27;;;8.60;92.00;;;;;;5051449;28;20135;-83
2020/12/21 11:28:41;;;;;;;8.10;2.70;;;8.60;92.10;;;;;;5034719;28;20037;-83
2020/12/21 11:31:07;;;;;;;11.50;2.33;;;8.60;92.20;;;;;;5051243;28;20021;-83
2020/12/21 11:33:33;;;;;;;11.63;3.30;;;8.60;92.30;;;;;;5034737;28;20036;-83
2020/12/21 11:35:59;;;;;;;9.47;2.93;;;8.60;92.30;;;;;;5051176;28;20037;-84
2020/12/21 11:38:25;;;;;;;10.50;3.07;;;8.60;92.30;;;;;;5051297;28;20055;-83
2020/12/21 11:40:50;;;;;;;9.60;2.50;;;8.60;92.40;;;;;;5035034;28;20033;-84
2020/12/21 11:43:17;;;;;;;11.07;2.73;;;8.60;92.40;;;;;;5056017;28;20029;-84
2020/12/21 11:45:47;;;;;;;13.30;2.30;;;8.70;92.40;;;;;;5038660;28;20056;-83
2020/12/21 11:48:12;;;;;;;10.27;2.40;;;8.60;92.40;;;;;;5056032;28;20461;-85
2020/12/21 11:50:38;;;;;;;12.43;2.53;;;8.60;92.50;;;;;;5022067;28;20032;-84
2020/12/21 11:53:03;;;;;;;11.80;2.67;;;8.60;92.50;;;;;;5038042;28;20036;-84
2020/12/21 11:55:29;;;;;;;11.17;2.30;;;8.60;92.50;;;;;;5022053;28;20033;-84
2020/12/21 11:57:55;;;;;;;7.73;2.13;;;8.60;92.50;;;;;;5055194;28;20037;-83
2020/12/21 12:00:20;;;;;;;10.63;2.43;;;8.60;92.50;;;;;;5021546;28;20039;-83
2020/12/21 12:02:46;;;;;;;12.60;3.33;;;8.60;92.50;;;;;;5054539;28;20532;-84
2020/12/21 12:05:12;;;;;;;9.80;2.93;;;8.70;92.50;;;;;;5055531;28;20527;-83
2020/12/21 12:07:39;;;;;;;8.87;2.60;;;8.60;92.50;;;;;;5037649;28;20032;-83
2020/12/21 12:10:06;;;;;;;13.07;3.33;;;8.60;92.50;;;;;;5021504;28;20366;-84
2020/12/21 12:12:31;;;;;;;10.03;2.70;;;8.80;92.60;;;;;;5054475;28;20155;-84
2020/12/21 12:14:57;;;;;;;10.53;2.63;;;8.80;92.60;;;;;;5021313;28;20063;-84
2020/12/21 12:17:23;;;;;;;9.23;2.83;;;8.70;92.60;;;;;;5021198;28;20032;-83
2020/12/21 12:19:51;;;;;;;10.23;2.73;;;8.70;92.60;;;;;;5054177;28;20033;-84
2020/12/21 12:22:17;;;;;;;12.70;3.60;;;8.70;92.60;;;;;;5021007;28;20083;-85
2020/12/21 12:24:43;;;;;;;13.17;3.70;;;8.70;92.70;;;;;;5054061;28;20029;-79
2020/12/21 12:27:09;;;;;;;13.97;4.07;;;8.70;92.70;;;;;;5020993;28;20115;-83
2020/12/21 12:29:34;;;;;;;9.63;2.50;;;8.60;92.70;;;;;;5037862;28;20029;-83
2020/12/21 12:32:00;;;;;;;9.63;2.90;;;8.70;92.80;;;;;;5037279;28;20469;-82
2020/12/21 12:34:26;;;;;;;11.30;2.70;;;8.60;92.80;;;;;;5053890;28;20171;-83
2020/12/21 12:36:51;;;;;;;16.63;3.23;;;8.60;92.80;;;;;;5037344;28;20037;-83
2020/12/21 12:39:17;;;;;;;9.63;2.80;;;8.60;92.80;;;;;;5020663;28;20033;-82
2020/12/21 12:41:43;;;;;;;9.60;2.83;;;8.60;92.80;;;;;;5020984;28;20381;-84
2020/12/21 12:44:10;;;;;;;12.13;3.43;;;8.60;92.90;;;;;;5053521;28;20071;-84
2020/12/21 12:46:36;;;;;;;14.63;3.80;;;8.60;92.90;;;;;;5028760;28;20025;-82
2020/12/21 12:49:03;;;;;;;10.17;3.07;;;8.60;93.00;;;;;;5075283;28;20107;-82